createdAt,value
2022-08-12T00:00:53.728Z,40.64
2022-08-12T00:02:44.114Z,40.71
2022-08-12T00:04:34.435Z,40.89
2022-08-12T00:06:25.118Z,40.89
2022-08-12T00:08:15.799Z,40.90
2022-08-12T00:10:06.610Z,41.05
2022-08-12T00:11:56.563Z,41.13
2022-08-12T00:13:46.967Z,41.21
2022-08-12T00:15:37.029Z,41.33
2022-08-12T00:17:27.501Z,41.31
2022-08-12T00:19:17.657Z,41.32
2022-08-12T00:21:08.154Z,41.28
2022-08-12T00:22:59.885Z,41.12
2022-08-12T00:24:50.591Z,41.22
2022-08-12T00:26:40.993Z,41.27
2022-08-12T00:28:33.811Z,41.35
2022-08-12T00:30:27.004Z,41.48
2022-08-12T00:32:36.144Z,41.36
2022-08-12T00:37:29.125Z,41.38
2022-08-12T00:39:20.247Z,41.60
2022-08-12T00:41:10.816Z,41.52
2022-08-12T00:42:42.712Z,41.67
2022-08-12T00:44:15.165Z,41.83
2022-08-12T00:46:05.579Z,41.82
2022-08-12T00:47:37.263Z,41.94
2022-08-12T00:49:09.355Z,42.07
2022-08-12T00:50:40.964Z,42.20
2022-08-12T00:52:13.331Z,42.04
2022-08-12T00:53:45.049Z,42.08
2022-08-12T00:55:16.686Z,41.84
2022-08-12T00:56:48.783Z,41.87
2022-08-12T00:58:23.006Z,41.91
2022-08-12T00:59:55.651Z,41.78
2022-08-12T01:01:27.720Z,41.72
2022-08-12T01:03:19.792Z,41.94
2022-08-12T01:05:17.021Z,41.87
2022-08-12T01:07:07.219Z,42.07
2022-08-12T01:08:57.409Z,41.81
2022-08-12T01:10:48.294Z,42.11
2022-08-12T01:12:20.385Z,42.29
2022-08-12T01:13:55.769Z,42.38
2022-08-12T01:15:30.919Z,42.35
2022-08-12T03:10:37.995Z,50.21
2022-08-12T03:14:40.915Z,50.37
2022-08-12T03:16:16.791Z,50.70
2022-08-12T03:18:24.623Z,50.58
2022-08-12T03:20:10.228Z,50.97
2022-08-12T03:21:55.506Z,50.75
2022-08-12T03:23:40.620Z,50.80
2022-08-12T03:25:13.362Z,50.71
2022-08-12T03:26:44.964Z,51.11
2022-08-12T03:28:38.613Z,51.05
2022-08-12T03:30:15.703Z,51.15
2022-08-12T03:31:51.094Z,51.00
2022-08-12T03:33:27.040Z,51.30
2022-08-12T03:37:29.163Z,51.50
2022-08-12T03:39:36.493Z,51.52
2022-08-12T03:41:30.807Z,51.64
2022-08-12T03:43:21.503Z,51.57
2022-08-12T03:45:14.409Z,51.75
2022-08-12T03:47:06.049Z,52.07
2022-08-12T03:48:58.286Z,52.09
2022-08-12T03:50:48.429Z,52.08
2022-08-12T03:52:39.011Z,52.07
2022-08-12T03:54:29.232Z,51.89
2022-08-12T03:56:19.425Z,51.98
2022-08-12T03:58:09.874Z,52.06
2022-08-12T04:00:00.222Z,52.19
2022-08-12T04:01:31.904Z,52.20
2022-08-12T04:03:37.828Z,52.34
2022-08-12T04:05:16.496Z,52.18
2022-08-12T04:06:57.535Z,51.91
2022-08-12T04:11:57.829Z,51.86
2022-08-12T04:13:30.156Z,51.64
2022-08-12T04:15:01.729Z,51.65
2022-08-12T04:16:33.724Z,51.82
2022-08-12T04:18:07.421Z,51.83
2022-08-12T04:19:39.812Z,51.94
2022-08-12T04:21:11.402Z,52.15
2022-08-12T04:22:44.208Z,52.04
2022-08-12T04:24:16.327Z,52.06
2022-08-12T04:25:47.961Z,52.20
2022-08-12T04:27:19.774Z,52.29
2022-08-12T04:28:51.456Z,52.28
2022-08-12T04:30:33.253Z,52.63
2022-08-12T04:32:07.026Z,52.64
2022-08-12T04:33:40.028Z,52.50
2022-08-12T04:35:12.028Z,52.48
2022-08-12T04:36:44.498Z,52.29
2022-08-12T04:38:16.390Z,52.29
2022-08-12T04:39:48.177Z,52.46
2022-08-12T04:41:20.970Z,52.58
2022-08-12T04:42:52.545Z,52.65
2022-08-12T04:44:24.101Z,52.99
2022-08-12T04:45:56.098Z,53.09
2022-08-12T04:47:27.950Z,53.03
2022-08-12T04:49:00.356Z,53.00
2022-08-12T04:50:34.936Z,53.05
2022-08-12T04:52:07.226Z,53.07
2022-08-12T04:53:40.114Z,53.05
2022-08-12T04:55:13.147Z,53.02
2022-08-12T04:56:44.742Z,53.33
2022-08-12T04:58:36.682Z,53.09
2022-08-12T05:00:12.187Z,53.17
2022-08-12T05:01:43.777Z,53.49
2022-08-12T05:03:15.354Z,53.28
2022-08-12T05:04:47.804Z,53.51
2022-08-12T05:06:26.638Z,53.46
2022-08-12T05:07:59.063Z,53.63
2022-08-12T05:09:55.355Z,53.90
2022-08-12T05:11:25.432Z,53.69
2022-08-12T05:12:58.190Z,53.83
2022-08-12T05:17:27.248Z,53.77
2022-08-12T05:19:01.031Z,54.12
2022-08-12T05:20:32.691Z,54.17
2022-08-12T05:22:04.265Z,54.36
2022-08-12T05:23:39.069Z,54.48
2022-08-12T05:25:12.157Z,54.39
2022-08-12T05:26:43.676Z,54.42
2022-08-12T05:28:16.226Z,54.14
2022-08-12T05:30:07.233Z,54.52
2022-08-12T05:31:47.520Z,54.34
2022-08-12T05:33:20.159Z,54.72
2022-08-12T05:34:53.477Z,54.71
2022-08-12T05:36:25.075Z,54.61
2022-08-12T05:38:14.926Z,54.78
2022-08-12T05:39:49.730Z,54.60
2022-08-12T05:41:27.009Z,54.71
2022-08-12T05:43:02.971Z,54.86
2022-08-12T05:49:43.448Z,54.94
2022-08-12T05:51:16.270Z,54.80
2022-08-12T05:52:48.604Z,55.03
2022-08-12T05:54:35.323Z,55.32
2022-08-12T05:56:19.729Z,55.18
2022-08-12T05:57:55.431Z,55.21
2022-08-12T05:59:26.976Z,55.07
2022-08-12T06:00:59.341Z,55.09
2022-08-12T06:02:51.340Z,55.00
2022-08-12T06:04:23.064Z,55.09
2022-08-12T06:05:57.289Z,55.07
2022-08-12T06:08:00.590Z,55.05
2022-08-12T06:09:22.892Z,54.91
2022-08-12T06:10:56.012Z,55.06
2022-08-12T06:12:27.897Z,55.02
2022-08-12T06:14:00.025Z,55.03
2022-08-12T06:15:32.255Z,55.05
2022-08-12T06:17:04.559Z,55.04
2022-08-12T06:18:40.068Z,55.33
2022-08-12T06:20:26.594Z,55.13
2022-08-12T06:22:03.939Z,55.33
2022-08-12T06:35:25.314Z,54.82
2022-08-12T06:36:30.030Z,54.70
2022-08-12T06:38:04.759Z,54.99
2022-08-12T06:39:36.354Z,54.81
2022-08-12T06:41:26.423Z,54.87
2022-08-12T06:43:01.410Z,54.89
2022-08-12T06:44:37.273Z,54.46
2022-08-12T06:46:15.003Z,54.64
2022-08-12T06:50:49.367Z,54.51
2022-08-12T06:52:26.872Z,54.13
2022-08-12T06:53:58.987Z,54.26
2022-08-12T06:55:30.619Z,53.90
2022-08-12T06:57:04.942Z,54.10
2022-08-12T06:58:55.906Z,53.82
2022-08-12T07:00:32.443Z,53.85
2022-08-12T07:02:04.683Z,53.71
2022-08-12T07:03:36.775Z,53.68
2022-08-12T07:05:08.548Z,53.69
2022-08-12T07:06:40.198Z,53.38
2022-08-12T07:08:12.153Z,53.34
2022-08-12T07:10:06.984Z,53.28
2022-08-12T07:11:35.364Z,53.33
2022-08-12T07:13:09.513Z,53.32
2022-08-12T07:14:42.888Z,53.43
2022-08-12T07:16:17.863Z,53.77
2022-08-12T07:17:49.623Z,53.47
2022-08-12T07:19:21.306Z,53.58
2022-08-12T07:20:53.505Z,53.67
2022-08-12T07:22:25.767Z,53.27
2022-08-12T07:23:57.340Z,53.52
2022-08-12T07:25:40.978Z,53.11
2022-08-12T07:27:13.245Z,53.00
2022-08-12T07:28:45.091Z,53.00
2022-08-12T07:30:17.248Z,52.73
2022-08-12T07:31:48.881Z,52.70
2022-08-12T07:33:22.420Z,52.83
2022-08-12T07:34:54.774Z,52.81
2022-08-12T07:36:27.638Z,52.68
2022-08-12T07:38:00.674Z,52.87
2022-08-12T07:39:32.296Z,52.57
2022-08-12T07:41:06.271Z,52.58
2022-08-12T07:42:38.277Z,52.41
2022-08-12T07:44:10.259Z,52.75
2022-08-12T07:45:41.849Z,52.71
2022-08-12T07:47:13.628Z,52.74
2022-08-12T07:48:49.096Z,52.56
2022-08-12T07:50:23.797Z,52.53
2022-08-12T07:51:55.761Z,52.33
2022-08-12T07:53:28.094Z,52.50
2022-08-12T07:55:00.073Z,52.46
2022-08-12T07:56:32.106Z,52.24
2022-08-12T07:58:04.043Z,52.45
2022-08-12T07:59:36.010Z,52.26
2022-08-12T08:01:12.060Z,52.41
2022-08-12T08:02:44.112Z,52.07
2022-08-12T08:04:34.312Z,51.75
2022-08-12T08:06:18.967Z,51.61
2022-08-12T08:07:53.577Z,51.49
2022-08-12T08:09:25.413Z,51.72
2022-08-12T08:11:17.812Z,51.66
2022-08-12T08:12:56.146Z,51.36
2022-08-12T08:14:32.746Z,51.22
2022-08-12T08:16:05.906Z,50.83
2022-08-12T08:17:38.675Z,50.52
2022-08-12T08:19:19.513Z,50.70
2022-08-12T08:20:51.103Z,50.32
2022-08-12T08:22:40.764Z,50.70
2022-08-12T08:24:17.211Z,50.24
2022-08-12T08:25:51.120Z,50.35
2022-08-12T08:27:23.340Z,50.19
2022-08-12T08:28:55.077Z,50.21
2022-08-12T08:30:27.375Z,50.06
2022-08-12T08:37:06.801Z,49.73
2022-08-12T08:38:41.799Z,49.91
2022-08-12T08:40:48.611Z,49.83
2022-08-12T08:42:40.653Z,49.71
2022-08-12T08:44:13.131Z,49.50
2022-08-12T08:45:45.849Z,49.71
2022-08-12T08:47:17.648Z,49.13
2022-08-12T08:48:49.276Z,49.21
2022-08-12T08:50:21.266Z,48.93
2022-08-12T08:51:52.967Z,48.73
2022-08-12T08:53:24.773Z,48.45
2022-08-12T08:54:56.414Z,48.12
2022-08-12T08:56:31.038Z,48.00
2022-08-12T08:58:03.446Z,48.00
2022-08-12T08:59:35.226Z,48.04
2022-08-12T09:01:06.911Z,47.62
2022-08-12T09:02:38.635Z,47.95
2022-08-12T09:05:07.874Z,48.11
2022-08-12T09:06:03.769Z,48.01
2022-08-12T09:07:51.542Z,47.84
2022-08-12T09:14:11.502Z,46.68
2022-08-12T09:15:35.829Z,46.53
2022-08-12T09:17:08.270Z,46.38
2022-08-12T09:18:41.187Z,45.73
2022-08-12T09:20:16.009Z,45.13
2022-08-12T09:24:00.418Z,45.23
2022-08-12T09:25:33.570Z,45.30
2022-08-12T09:27:06.416Z,45.03
2022-08-12T09:30:41.921Z,44.39
2022-08-12T09:32:56.236Z,44.15
2022-08-12T09:34:26.031Z,44.53
2022-08-12T09:36:04.997Z,44.24
2022-08-12T09:37:57.725Z,44.11
2022-08-12T09:40:02.061Z,43.61
2022-08-12T09:42:32.892Z,43.71
2022-08-12T09:43:36.155Z,43.31
2022-08-12T09:46:05.189Z,43.12
2022-08-12T09:47:15.376Z,43.02
2022-08-12T09:48:56.305Z,42.60
2022-08-12T09:50:28.696Z,42.44
2022-08-12T09:52:00.345Z,42.50
2022-08-12T09:53:36.278Z,42.46
2022-08-12T09:56:06.744Z,41.93
2022-08-12T09:58:45.515Z,41.52
2022-08-12T09:59:10.168Z,41.33
2022-08-12T10:00:48.563Z,41.71
2022-08-12T10:02:45.915Z,41.68
2022-08-12T10:04:19.938Z,41.51
2022-08-12T10:06:20.490Z,40.82
2022-08-12T10:07:45.236Z,41.29
2022-08-12T10:09:16.991Z,40.82
2022-08-12T10:11:07.636Z,40.78
2022-08-12T10:13:07.058Z,40.44
2022-08-12T10:14:50.422Z,41.04
2022-08-12T10:16:29.237Z,40.45
2022-08-12T10:18:06.609Z,40.16
2022-08-12T10:19:40.518Z,40.21
2022-08-12T10:21:35.719Z,40.21
2022-08-12T10:23:09.461Z,40.07
2022-08-12T10:25:04.840Z,39.98
2022-08-12T10:27:08.088Z,39.65
2022-08-12T10:30:01.898Z,39.61
2022-08-12T10:30:58.930Z,39.87
2022-08-12T10:32:44.374Z,39.62
2022-08-12T10:34:26.329Z,39.85
2022-08-12T10:36:00.502Z,39.66
2022-08-12T10:38:36.481Z,39.53
2022-08-12T10:40:08.251Z,39.71
2022-08-12T10:41:57.174Z,39.75
2022-08-12T10:43:54.373Z,39.64
2022-08-12T10:45:30.363Z,40.04
2022-08-12T10:47:02.628Z,39.54
2022-08-12T10:48:58.379Z,39.55
2022-08-12T10:50:58.480Z,39.42
2022-08-12T10:52:34.959Z,39.35
2022-08-12T10:54:13.377Z,39.35
2022-08-12T10:55:45.135Z,39.85
2022-08-12T10:57:18.410Z,39.47
2022-08-12T10:59:11.155Z,39.07
2022-08-12T11:00:54.899Z,38.94
2022-08-12T11:04:25.544Z,38.63
2022-08-12T11:04:35.807Z,38.53
2022-08-12T11:07:08.460Z,38.21
2022-08-12T11:08:34.387Z,38.36
2022-08-12T11:10:01.287Z,38.39
2022-08-12T11:12:35.216Z,38.20
2022-08-12T11:13:46.247Z,38.06
2022-08-12T11:15:32.926Z,38.41
2022-08-12T11:17:43.944Z,38.41
2022-08-12T11:19:06.758Z,38.43
2022-08-12T11:20:38.918Z,38.26
2022-08-12T11:22:10.742Z,38.04
2022-08-12T11:23:43.182Z,38.26
2022-08-12T11:25:25.653Z,38.06
2022-08-12T11:27:17.212Z,38.61
2022-08-12T11:28:50.443Z,38.72
2022-08-12T11:30:37.169Z,38.72
2022-08-12T11:32:08.782Z,38.53
2022-08-12T11:34:06.825Z,38.19
2022-08-12T11:35:33.076Z,38.56
2022-08-12T11:37:25.683Z,38.80
2022-08-12T11:39:05.265Z,38.81
2022-08-12T11:40:37.146Z,38.33
2022-08-12T11:42:14.782Z,38.17
2022-08-12T11:43:50.776Z,38.42
2022-08-12T11:45:30.482Z,38.43
2022-08-12T11:47:10.723Z,38.16
2022-08-12T11:48:50.928Z,38.34
2022-08-12T11:50:32.081Z,38.08
2022-08-12T11:52:04.317Z,38.16
2022-08-12T11:53:59.536Z,38.43
2022-08-12T11:55:33.189Z,38.66
2022-08-12T11:58:01.207Z,38.75
2022-08-12T12:02:45.463Z,38.75
2022-08-12T12:04:29.407Z,38.31
2022-08-12T12:06:01.364Z,38.48
2022-08-12T12:08:36.363Z,38.30
2022-08-12T12:09:25.558Z,38.67
2022-08-12T12:10:57.147Z,38.34
2022-08-12T12:12:31.173Z,38.48
2022-08-12T12:14:08.271Z,38.70
2022-08-12T12:15:42.813Z,38.40
2022-08-12T12:17:14.469Z,38.48
2022-08-12T12:18:46.633Z,38.29
2022-08-12T12:20:18.246Z,38.00
2022-08-12T12:21:49.878Z,37.66
2022-08-12T12:23:29.200Z,37.62
2022-08-12T12:25:12.705Z,37.41
2022-08-12T12:26:45.089Z,37.19
2022-08-12T12:28:36.597Z,37.33
2022-08-12T12:30:19.123Z,37.22
2022-08-12T12:32:09.014Z,37.27
2022-08-12T12:33:57.192Z,37.53
2022-08-12T12:36:19.661Z,37.37
2022-08-12T12:37:58.952Z,37.16
2022-08-12T12:39:13.426Z,37.53
2022-08-12T12:40:50.389Z,37.55
2022-08-12T12:42:54.622Z,37.09
2022-08-12T12:44:38.529Z,36.97
2022-08-12T12:46:05.914Z,36.66
2022-08-12T12:47:37.612Z,36.53
2022-08-12T12:49:10.891Z,36.58
2022-08-12T12:50:51.658Z,36.21
2022-08-12T12:52:27.023Z,36.07
2022-08-12T12:54:08.095Z,36.15
2022-08-12T12:55:42.084Z,35.95
2022-08-12T12:57:15.034Z,36.00
2022-08-12T12:58:49.995Z,35.85
2022-08-12T13:00:21.633Z,35.63
2022-08-12T13:01:53.284Z,35.70
2022-08-12T13:03:24.907Z,35.69
2022-08-12T13:04:56.752Z,35.68
2022-08-12T13:06:32.471Z,35.73
2022-08-12T13:08:28.522Z,35.73
2022-08-12T13:10:07.387Z,36.12
2022-08-12T13:11:41.536Z,35.77
2022-08-12T13:14:07.501Z,35.89
2022-08-12T13:15:13.523Z,35.94
2022-08-12T13:17:06.136Z,35.93
2022-08-12T13:18:37.920Z,35.90
2022-08-12T13:20:09.707Z,35.93
2022-08-12T13:22:01.361Z,35.74
2022-08-12T13:23:36.216Z,35.93
2022-08-12T13:25:09.318Z,35.74
2022-08-12T13:26:41.148Z,35.75
2022-08-12T13:28:43.155Z,35.41
2022-08-12T13:30:15.907Z,35.61
2022-08-12T13:32:18.950Z,35.34
2022-08-12T13:34:28.439Z,35.21
2022-08-12T13:36:06.407Z,35.46
2022-08-12T13:37:28.129Z,35.04
2022-08-12T13:39:16.331Z,35.57
2022-08-12T13:40:49.148Z,35.34
2022-08-12T13:42:22.959Z,34.95
2022-08-12T13:43:55.026Z,35.11
2022-08-12T13:45:29.061Z,35.07
2022-08-12T13:47:01.070Z,35.07
2022-08-12T13:48:44.913Z,35.15
2022-08-12T13:50:17.307Z,35.17
2022-08-12T13:51:54.103Z,35.27
2022-08-12T13:53:29.569Z,35.38
2022-08-12T13:55:23.143Z,35.85
2022-08-12T13:57:03.120Z,35.79
2022-08-12T13:58:46.800Z,35.69
2022-08-12T14:00:34.324Z,35.54
2022-08-12T14:02:13.671Z,35.51
2022-08-12T14:03:51.128Z,35.88
2022-08-12T14:05:37.504Z,35.42
2022-08-12T14:07:10.459Z,35.55
2022-08-12T14:08:43.019Z,35.49
2022-08-12T14:10:33.447Z,35.56
2022-08-12T14:12:06.391Z,35.92
2022-08-12T14:14:06.104Z,35.94
2022-08-12T14:15:47.754Z,36.15
2022-08-12T14:17:19.708Z,36.23
2022-08-12T14:18:51.789Z,36.15
2022-08-12T14:20:23.428Z,35.96
2022-08-12T14:22:04.576Z,36.06
2022-08-12T14:24:01.180Z,36.01
2022-08-12T14:25:34.758Z,36.30
2022-08-12T14:27:09.169Z,36.04
2022-08-12T14:28:45.445Z,36.59
2022-08-12T14:30:29.889Z,36.59
2022-08-12T14:32:01.614Z,36.79
2022-08-12T14:33:44.328Z,36.74
2022-08-12T14:35:16.143Z,36.59
2022-08-12T14:36:47.743Z,36.78
2022-08-12T14:38:26.166Z,36.96
2022-08-12T14:39:57.957Z,36.87
2022-08-12T14:41:37.095Z,36.94
2022-08-12T14:43:31.414Z,36.83
2022-08-12T14:45:07.028Z,36.82
2022-08-12T14:46:39.345Z,36.72
2022-08-12T14:48:12.038Z,37.08
2022-08-12T14:50:37.327Z,36.95
2022-08-12T14:53:12.214Z,37.06
2022-08-12T14:57:20.235Z,37.09
2022-08-12T14:59:23.714Z,37.28
2022-08-12T15:01:14.322Z,36.83
2022-08-12T15:02:46.773Z,37.42
2022-08-12T15:04:26.190Z,37.18
2022-08-12T15:06:05.419Z,36.98
2022-08-12T15:07:48.670Z,36.95
2022-08-12T15:09:29.311Z,37.24
2022-08-12T15:11:03.079Z,36.93
2022-08-12T15:12:34.834Z,37.25
2022-08-12T15:14:13.793Z,37.13
2022-08-12T15:15:46.011Z,37.05
2022-08-12T15:17:37.433Z,37.28
2022-08-12T15:20:10.715Z,36.95
2022-08-12T15:21:05.514Z,36.86
2022-08-12T15:22:53.759Z,36.88
2022-08-12T15:24:25.892Z,37.00
2022-08-12T15:26:00.014Z,37.19
2022-08-12T15:28:03.781Z,37.21
2022-08-12T15:29:35.127Z,37.31
2022-08-12T15:31:21.274Z,37.15
2022-08-12T15:32:59.366Z,36.95
2022-08-12T15:34:33.481Z,37.37
2022-08-12T15:36:07.772Z,37.53
2022-08-12T15:38:08.932Z,37.50
2022-08-12T15:39:31.253Z,37.58
2022-08-12T15:41:06.282Z,37.46
2022-08-12T15:42:38.210Z,37.32
2022-08-12T15:44:36.529Z,37.57
2022-08-12T15:46:05.130Z,37.55
2022-08-12T15:47:49.588Z,37.62
2022-08-12T15:49:22.702Z,37.61
2022-08-12T15:50:55.097Z,37.58
2022-08-12T15:52:28.379Z,37.62
2022-08-12T15:54:30.835Z,37.64
2022-08-12T15:56:00.773Z,37.66
2022-08-12T15:57:33.625Z,37.78
2022-08-12T15:59:05.711Z,37.67
2022-08-12T16:00:38.119Z,37.74
2022-08-12T16:02:10.235Z,37.71
2022-08-12T16:04:00.021Z,37.76
2022-08-12T16:06:10.191Z,37.86
2022-08-12T16:07:30.270Z,37.89
2022-08-12T16:09:09.812Z,37.67
2022-08-12T16:10:42.731Z,37.63
2022-08-12T16:12:14.798Z,37.83
2022-08-12T16:13:46.498Z,37.61
2022-08-12T16:15:19.533Z,37.74
2022-08-12T16:16:53.847Z,38.06
2022-08-12T16:18:26.170Z,37.89
2022-08-12T16:20:04.182Z,38.07
2022-08-12T16:21:51.882Z,37.99
2022-08-12T16:23:51.906Z,38.11
2022-08-12T16:25:28.400Z,37.95
2022-08-12T16:27:14.903Z,37.98
2022-08-12T16:28:47.222Z,38.00
2022-08-12T16:30:19.733Z,38.19
2022-08-12T16:32:01.120Z,37.83
2022-08-12T16:33:56.238Z,37.94
2022-08-12T16:35:31.215Z,38.12
2022-08-12T16:37:08.027Z,38.10
2022-08-12T16:38:40.730Z,38.02
2022-08-12T16:40:18.764Z,38.15
2022-08-12T16:41:50.834Z,38.33
2022-08-12T16:43:26.334Z,37.99
2022-08-12T16:45:02.222Z,38.13
2022-08-12T16:46:34.252Z,38.06
2022-08-12T16:48:06.365Z,38.26
2022-08-12T16:49:43.542Z,38.42
2022-08-12T16:51:15.429Z,38.39
2022-08-12T16:52:47.762Z,38.41
2022-08-12T16:54:26.513Z,38.22
2022-08-12T16:56:04.311Z,38.32
2022-08-12T16:57:37.025Z,38.23
2022-08-12T16:59:16.105Z,38.21
2022-08-12T17:00:51.399Z,38.33
2022-08-12T17:02:34.064Z,38.36
2022-08-12T17:04:09.569Z,38.60
2022-08-12T17:05:42.508Z,38.19
2022-08-12T17:07:19.916Z,38.24
2022-08-12T17:08:55.741Z,38.44
2022-08-12T17:10:35.908Z,38.54
2022-08-12T17:12:09.599Z,38.39
2022-08-12T17:13:53.257Z,38.26
2022-08-12T17:15:57.510Z,38.32
2022-08-12T17:17:38.678Z,38.62
2022-08-12T17:19:11.521Z,38.37
2022-08-12T17:20:44.582Z,38.25
2022-08-12T17:22:21.770Z,38.43
2022-08-12T17:23:54.572Z,38.39
2022-08-12T17:25:26.190Z,38.79
2022-08-12T17:27:09.454Z,38.62
2022-08-12T17:28:52.156Z,38.62
2022-08-12T17:30:24.710Z,38.76
2022-08-12T17:32:02.768Z,39.02
2022-08-12T17:33:35.890Z,39.10
2022-08-12T17:35:37.306Z,39.16
2022-08-12T17:37:09.288Z,39.39
2022-08-12T17:38:50.615Z,39.05
2022-08-12T17:40:35.649Z,39.32
2022-08-12T17:42:11.223Z,39.22
2022-08-12T17:43:59.722Z,39.69
2022-08-12T17:45:32.950Z,39.43
2022-08-12T17:47:06.400Z,39.21
2022-08-12T17:48:55.305Z,39.53
2022-08-12T17:50:29.841Z,39.29
2022-08-12T17:52:02.633Z,39.44
2022-08-12T17:54:05.767Z,39.25
2022-08-12T17:55:40.263Z,39.75
2022-08-12T17:57:17.655Z,39.54
2022-08-12T17:58:57.994Z,39.37
2022-08-12T18:00:30.706Z,39.76
2022-08-12T18:02:03.176Z,39.70
2022-08-12T18:03:57.480Z,39.70
2022-08-12T18:05:43.429Z,39.66
2022-08-12T18:07:23.890Z,39.40
2022-08-12T18:09:09.466Z,39.71
2022-08-12T18:11:02.883Z,39.80
2022-08-12T18:12:49.849Z,39.86
2022-08-12T18:14:28.128Z,39.63
2022-08-12T18:16:06.646Z,39.74
2022-08-12T18:17:39.677Z,40.01
2022-08-12T18:19:11.507Z,39.63
2022-08-12T18:20:44.995Z,39.93
2022-08-12T18:22:21.887Z,39.70
2022-08-12T18:24:00.955Z,40.00
2022-08-12T18:26:16.831Z,39.89
2022-08-12T18:27:47.208Z,39.63
2022-08-12T18:29:19.335Z,39.89
2022-08-12T18:30:55.177Z,39.66
2022-08-12T18:32:35.250Z,39.64
2022-08-12T18:34:24.256Z,39.74
2022-08-12T18:35:58.254Z,39.96
2022-08-12T18:37:42.191Z,39.61
2022-08-12T18:39:20.186Z,39.96
2022-08-12T18:41:10.798Z,39.72
2022-08-12T18:42:46.923Z,40.21
2022-08-12T18:44:28.143Z,40.23
2022-08-12T18:45:59.955Z,40.28
2022-08-12T18:47:46.848Z,40.35
2022-08-12T18:49:39.292Z,40.45
2022-08-12T18:51:21.765Z,40.31
2022-08-12T18:53:04.733Z,40.23
2022-08-12T18:54:41.561Z,40.52
2022-08-12T18:56:32.937Z,40.59
2022-08-12T18:58:10.135Z,40.96
2022-08-12T19:00:02.301Z,41.01
2022-08-12T19:02:19.688Z,41.27
2022-08-12T19:03:39.586Z,41.08
2022-08-12T19:05:12.485Z,41.32
2022-08-12T19:06:46.482Z,41.28
2022-08-12T19:08:18.909Z,41.26
2022-08-12T19:09:58.727Z,41.42
2022-08-12T19:11:50.769Z,41.31
2022-08-12T19:13:43.590Z,41.59
2022-08-12T19:15:15.692Z,41.43
2022-08-12T19:16:51.668Z,41.79
2022-08-12T19:18:26.090Z,41.80
2022-08-12T19:20:03.994Z,41.97
2022-08-12T19:21:37.178Z,41.72
2022-08-12T19:23:16.356Z,42.07
2022-08-12T19:25:11.061Z,42.06
2022-08-12T19:26:43.358Z,42.07
2022-08-12T19:28:19.477Z,41.95
2022-08-12T19:30:06.937Z,42.15
2022-08-12T19:31:58.743Z,42.14
2022-08-12T19:33:33.368Z,42.23
2022-08-12T19:36:58.090Z,42.51
2022-08-12T19:38:30.011Z,42.44
2022-08-12T19:40:09.601Z,42.51
2022-08-12T19:41:55.921Z,42.36
2022-08-12T19:43:59.476Z,42.58
2022-08-12T19:45:43.906Z,42.71
2022-08-12T19:47:18.977Z,42.68
2022-08-12T19:48:58.789Z,42.45
2022-08-12T19:50:37.466Z,42.61
2022-08-12T19:52:10.344Z,42.57
2022-08-12T19:53:57.892Z,42.47
2022-08-12T19:55:31.774Z,42.65
2022-08-12T19:57:11.015Z,42.76
2022-08-12T19:58:43.000Z,42.83
2022-08-12T20:00:22.638Z,42.67
2022-08-12T20:02:03.242Z,42.86
2022-08-12T20:03:38.584Z,42.96
2022-08-12T20:06:07.232Z,42.98
2022-08-12T20:07:22.915Z,43.10
2022-08-12T20:08:57.139Z,42.84
2022-08-12T20:10:35.093Z,42.90
2022-08-12T20:12:15.177Z,43.04
2022-08-12T20:14:00.264Z,43.05
2022-08-12T20:15:45.079Z,43.14
2022-08-12T20:17:17.280Z,43.23
2022-08-12T20:18:58.247Z,43.40
2022-08-12T20:20:30.207Z,43.16
2022-08-12T20:22:08.690Z,43.13
2022-08-12T20:23:59.543Z,43.36
2022-08-12T20:25:52.516Z,43.54
2022-08-12T20:27:29.449Z,43.21
2022-08-12T20:29:18.311Z,43.33
2022-08-12T20:30:59.986Z,43.78
2022-08-12T20:32:37.652Z,43.92
2022-08-12T20:34:19.956Z,43.90
2022-08-12T20:36:13.289Z,44.01
2022-08-12T20:38:07.047Z,44.14
2022-08-12T20:39:53.442Z,44.22
2022-08-12T20:41:29.511Z,44.45
2022-08-12T20:43:01.519Z,44.33
2022-08-12T20:44:39.830Z,44.29
2022-08-12T20:46:13.439Z,44.56
2022-08-12T20:47:46.750Z,44.50
2022-08-12T20:49:26.848Z,44.48
2022-08-12T20:51:04.311Z,44.75
2022-08-12T20:52:38.146Z,44.69
2022-08-12T20:54:10.123Z,44.75
2022-08-12T20:55:46.974Z,44.58
2022-08-12T20:57:37.828Z,44.78
2022-08-12T20:59:11.254Z,44.60
2022-08-12T21:00:46.857Z,44.63
2022-08-12T21:02:24.139Z,44.69
2022-08-12T21:04:14.966Z,44.71
2022-08-12T21:06:12.510Z,44.48
2022-08-12T21:07:47.793Z,44.80
2022-08-12T21:09:30.996Z,44.56
2022-08-12T21:11:03.923Z,44.83
2022-08-12T21:12:37.248Z,44.69
2022-08-12T21:14:10.537Z,44.82
2022-08-12T21:15:55.223Z,44.88
2022-08-12T21:18:01.054Z,45.02
2022-08-12T21:19:25.883Z,45.09
2022-08-12T21:21:23.808Z,44.95
2022-08-12T21:22:56.143Z,44.98
2022-08-12T21:24:32.496Z,45.01
2022-08-12T21:26:11.393Z,45.29
2022-08-12T21:27:57.825Z,45.22
2022-08-12T21:29:40.155Z,45.27
2022-08-12T21:32:36.837Z,45.21
2022-08-12T21:33:18.592Z,45.54
2022-08-12T21:34:51.683Z,45.55
2022-08-12T21:36:34.751Z,45.32
2022-08-12T21:38:07.031Z,45.50
2022-08-12T21:39:39.142Z,45.60
2022-08-12T21:41:16.014Z,45.51
2022-08-12T21:42:48.031Z,45.69
2022-08-12T21:44:24.272Z,45.73
2022-08-12T21:46:34.649Z,45.92
2022-08-12T21:48:10.180Z,45.75
2022-08-12T21:49:55.434Z,45.87
2022-08-12T21:51:49.578Z,45.91
2022-08-12T21:53:22.034Z,45.97
2022-08-12T21:55:08.116Z,46.14
2022-08-12T21:56:47.666Z,46.04
2022-08-12T21:58:21.252Z,46.01
2022-08-12T21:59:54.804Z,46.03
2022-08-12T22:01:26.488Z,46.02
2022-08-12T22:04:01.599Z,45.99
2022-08-12T22:05:31.391Z,45.90
2022-08-12T22:07:03.201Z,46.00
2022-08-12T22:08:35.298Z,46.11
2022-08-12T22:10:07.893Z,45.94
2022-08-12T22:11:56.491Z,46.09
2022-08-12T22:14:04.217Z,46.08
2022-08-12T22:15:22.658Z,46.19
2022-08-12T22:16:55.155Z,46.37
2022-08-12T22:18:27.945Z,46.32
2022-08-12T22:20:02.309Z,46.42
2022-08-12T22:21:37.867Z,46.45
2022-08-12T22:23:21.619Z,46.65
2022-08-12T22:25:00.377Z,46.73
2022-08-12T22:26:37.631Z,46.74
2022-08-12T22:28:28.591Z,46.90
2022-08-12T22:30:29.745Z,46.85
2022-08-12T22:32:02.451Z,47.11
2022-08-12T22:33:50.779Z,46.90
2022-08-12T22:35:56.080Z,46.89
2022-08-12T22:37:23.733Z,46.87
2022-08-12T22:38:56.385Z,46.93
2022-08-12T22:40:29.320Z,46.99
2022-08-12T22:42:19.840Z,46.96
2022-08-12T22:44:10.619Z,47.08
2022-08-12T22:46:01.572Z,47.09
2022-08-12T22:47:51.133Z,47.09
2022-08-12T22:49:36.911Z,47.13
2022-08-12T22:51:22.348Z,47.25
2022-08-12T22:53:15.085Z,47.43
2022-08-12T22:55:03.566Z,47.45
2022-08-12T22:56:37.072Z,47.65
2022-08-12T22:58:12.564Z,47.68
2022-08-12T22:59:55.201Z,47.76
2022-08-12T23:01:52.096Z,47.80
2022-08-12T23:03:49.727Z,47.62
2022-08-12T23:05:16.668Z,47.63
2022-08-12T23:06:49.516Z,47.59
2022-08-12T23:08:29.682Z,47.69
2022-08-12T23:10:02.230Z,47.84
2022-08-12T23:11:40.899Z,47.88
2022-08-12T23:13:43.890Z,47.97
2022-08-12T23:15:16.400Z,48.05
2022-08-12T23:16:50.389Z,48.11
2022-08-12T23:18:24.014Z,48.06
2022-08-12T23:20:05.318Z,48.22
2022-08-12T23:22:03.316Z,48.05
2022-08-12T23:23:29.833Z,48.21
2022-08-12T23:25:21.423Z,48.21
2022-08-12T23:27:22.682Z,48.31
2022-08-12T23:29:30.125Z,48.03
2022-08-12T23:31:06.399Z,48.19
2022-08-12T23:32:38.392Z,48.12
2022-08-12T23:34:10.430Z,48.05
2022-08-12T23:35:53.530Z,48.16
2022-08-12T23:37:47.299Z,48.09
2022-08-12T23:40:13.158Z,48.09
2022-08-12T23:41:25.791Z,48.18
2022-08-12T23:43:01.178Z,48.12
2022-08-12T23:44:33.710Z,48.25
2022-08-12T23:46:08.880Z,48.11
2022-08-12T23:47:43.957Z,48.29
2022-08-12T23:49:55.784Z,48.21
2022-08-12T23:51:21.956Z,48.25
2022-08-12T23:52:55.463Z,48.35
2022-08-12T23:54:38.721Z,48.42
2022-08-12T23:56:11.375Z,48.24
2022-08-12T23:58:17.462Z,48.16
2022-08-12T23:59:36.129Z,48.15
